Time;durP1;ratioP1;P1;durP2;ratioP2;P2;SDS_P1;SDS_P2;PMS_P1;PMS_P2;Temp;Humidity;BMP_temperature;BMP_pressure;BME280_temperature;BME280_humidity;BME280_pressure;Samples;Min_cycle;Max_cycle;Signal;HPM_P1;HPM_P2
2023/02/12 00:01:22;;;;;;;174.05;75.53;;;4.30;99.90;;;3.76;100.00;99765.22;4960126;28;20057;-67
2023/02/12 00:03:49;;;;;;;212.98;88.30;;;4.30;99.90;;;4.19;100.00;99768.56;4961685;28;20051;-67
2023/02/12 00:06:17;;;;;;;68.93;40.40;;;4.30;99.90;;;4.18;100.00;99764.28;4963644;28;20062;-66
2023/02/12 00:08:44;;;;;;;65.95;38.33;;;4.30;99.90;;;4.12;100.00;99763.31;4959709;28;20770;-67
2023/02/12 00:11:14;;;;;;;72.43;42.95;;;4.20;99.90;;;4.24;100.00;99766.09;4944235;28;20082;-67
2023/02/12 00:13:42;;;;;;;66.25;38.92;;;4.30;99.90;;;4.06;100.00;99766.66;4958930;28;20927;-66
2023/02/12 00:16:17;;;;;;;56.63;35.20;;;4.30;99.90;;;4.17;100.00;99770.28;4962592;28;20053;-67
2023/02/12 00:18:46;;;;;;;49.83;31.95;;;4.40;99.90;;;4.18;100.00;99769.44;4959280;28;20111;-67
2023/02/12 00:21:13;;;;;;;56.30;33.88;;;4.40;99.90;;;4.02;100.00;99767.41;4975499;28;20524;-67
2023/02/12 00:23:40;;;;;;;55.22;34.92;;;4.30;99.90;;;4.05;100.00;99762.31;4961799;28;20061;-67
2023/02/12 00:26:16;;;;;;;60.22;34.63;;;4.30;99.90;;;4.06;100.00;99763.19;4960402;28;20451;-67
2023/02/12 00:28:44;;;;;;;57.03;33.33;;;4.30;99.90;;;4.17;100.00;99760.00;4957222;28;20055;-67
2023/02/12 00:31:15;;;;;;;55.30;32.92;;;4.30;99.90;;;4.11;100.00;99753.88;4975188;28;20051;-66
2023/02/12 00:33:43;;;;;;;55.75;34.60;;;4.30;99.90;;;3.97;100.00;99759.63;4959691;28;20133;-67
2023/02/12 00:36:16;;;;;;;53.72;33.85;;;4.30;99.90;;;3.89;100.00;99774.00;4962575;28;20062;-67
2023/02/12 00:38:43;;;;;;;43.63;29.45;;;4.20;99.90;;;3.96;100.00;99765.59;4960562;28;20053;-66
2023/02/12 00:41:11;;;;;;;43.90;27.55;;;4.20;99.90;;;3.94;100.00;99758.69;4972528;28;20062;-67
2023/02/12 00:43:38;;;;;;;39.35;25.42;;;4.20;99.90;;;4.06;100.00;99758.03;4959021;28;20629;-67
2023/02/12 00:46:05;;;;;;;48.28;26.80;;;4.20;99.90;;;3.98;100.00;99761.34;4953921;28;20101;-66
2023/02/12 00:48:34;;;;;;;45.97;25.85;;;4.10;99.90;;;4.09;100.00;99756.41;4958904;28;20054;-67
2023/02/12 00:51:01;;;;;;;39.40;25.75;;;4.20;99.90;;;4.08;100.00;99761.50;4960512;28;20065;-67
2023/02/12 00:53:29;;;;;;;33.63;21.33;;;4.20;99.90;;;4.04;100.00;99749.44;4960002;28;20051;-66
2023/02/12 00:55:57;;;;;;;31.25;21.00;;;4.20;99.90;;;4.06;100.00;99752.91;4960092;28;20193;-67
2023/02/12 00:58:24;;;;;;;37.58;23.38;;;4.30;99.90;;;4.12;100.00;99759.03;4959862;28;20054;-67
2023/02/12 01:00:53;;;;;;;39.15;23.23;;;4.20;99.90;;;4.18;100.00;99760.84;4963965;28;20057;-67
2023/02/12 01:03:20;;;;;;;35.60;23.10;;;4.20;99.90;;;4.15;100.00;99758.22;4956331;28;20083;-66
2023/02/12 01:05:47;;;;;;;42.60;24.92;;;4.20;99.90;;;4.10;100.00;99763.25;4962447;28;20811;-66
2023/02/12 01:08:16;;;;;;;31.85;19.38;;;4.30;99.90;;;4.31;100.00;99769.63;4965035;28;20058;-66
2023/02/12 01:10:43;;;;;;;35.40;21.55;;;4.30;99.90;;;4.14;100.00;99764.19;4954689;28;20047;-66
2023/02/12 01:13:14;;;;;;;27.50;17.50;;;4.30;99.90;;;4.25;100.00;99770.41;4962371;28;20776;-66
2023/02/12 01:15:41;;;;;;;30.42;18.35;;;4.40;99.90;;;4.37;100.00;99767.19;4960821;28;20054;-66
2023/02/12 01:18:09;;;;;;;30.95;18.65;;;4.40;99.90;;;4.48;100.00;99763.09;4961613;28;20047;-66
2023/02/12 01:20:36;;;;;;;33.58;19.95;;;4.50;99.90;;;4.57;100.00;99763.25;4961595;28;20074;-67
2023/02/12 01:23:05;;;;;;;35.22;21.77;;;4.50;99.90;;;4.52;100.00;99771.75;4968195;28;20042;-67
2023/02/12 01:25:35;;;;;;;34.88;20.38;;;4.50;99.90;;;4.65;100.00;99755.63;4965633;28;20117;-67
2023/02/12 01:28:03;;;;;;;30.85;20.08;;;4.50;99.90;;;4.69;100.00;99749.72;4963503;28;20057;-67
2023/02/12 01:30:30;;;;;;;35.25;21.42;;;4.60;99.90;;;4.65;100.00;99755.63;4965556;28;20486;-68
2023/02/12 01:32:57;;;;;;;31.13;19.73;;;4.50;99.90;;;4.45;100.00;99757.00;4963073;28;20133;-67
2023/02/12 01:35:24;;;;;;;38.75;22.55;;;4.50;99.90;;;4.53;100.00;99752.88;4962032;28;20047;-67
2023/02/12 01:37:51;;;;;;;31.13;19.42;;;4.50;99.90;;;4.63;100.00;99754.78;4966449;28;20046;-66
2023/02/12 01:40:18;;;;;;;29.80;19.38;;;4.60;99.90;;;4.57;100.00;99746.94;4964988;28;20826;-67
2023/02/12 01:42:46;;;;;;;31.58;20.00;;;4.60;99.90;;;4.58;100.00;99747.00;4966282;28;20061;-66
2023/02/12 01:45:12;;;;;;;34.28;21.75;;;4.60;99.90;;;4.62;100.00;99740.16;4961024;28;20059;-66
2023/02/12 01:47:43;;;;;;;33.60;20.15;;;4.60;99.90;;;4.76;100.00;99737.81;4963631;28;20055;-66
2023/02/12 01:50:16;;;;;;;30.85;19.85;;;4.60;99.90;;;4.74;100.00;99740.34;4964785;28;20047;-67
2023/02/12 01:52:50;;;;;;;30.67;18.77;;;4.70;99.90;;;4.70;100.00;99740.28;4963823;28;20081;-66
2023/02/12 01:55:18;;;;;;;29.05;20.23;;;4.70;99.90;;;4.58;100.00;99730.66;4963883;28;20058;-67
2023/02/12 01:57:49;;;;;;;38.38;24.17;;;4.70;99.90;;;4.29;100.00;99733.63;4961242;28;20590;-66
2023/02/12 02:00:22;;;;;;;33.40;19.83;;;4.70;99.90;;;4.24;100.00;99740.38;4961464;28;20138;-66
2023/02/12 02:02:57;;;;;;;29.73;19.05;;;4.70;99.90;;;4.38;100.00;99740.66;4962754;28;20047;-66
2023/02/12 02:05:30;;;;;;;35.47;21.23;;;4.60;99.90;;;4.48;100.00;99746.81;4963528;28;20086;-67
2023/02/12 02:07:58;;;;;;;37.63;24.23;;;4.60;99.90;;;4.46;100.00;99741.63;4961778;28;20102;-67
2023/02/12 02:10:24;;;;;;;36.80;24.60;;;4.60;99.90;;;4.62;100.00;99740.16;4961420;28;20065;-67
2023/02/12 02:15:41;;;;;;;43.45;27.25;;;4.60;99.90;;;4.37;100.00;99726.91;4961707;28;20126;-68
2023/02/12 02:18:40;;;;;;;48.97;29.75;;;4.60;99.90;;;4.27;100.00;99735.31;4963658;28;20047;-66
2023/02/12 02:21:47;;;;;;;88.15;46.80;;;4.60;99.90;;;4.27;100.00;99735.31;4965518;28;20395;-67
2023/02/12 02:24:53;;;;;;;79.40;40.63;;;4.60;99.90;;;4.48;100.00;99721.94;4963987;28;20047;-67
2023/02/12 02:27:34;;;;;;;188.38;84.90;;;4.50;99.90;;;4.36;100.00;99721.75;4965001;28;20708;-67
2023/02/12 02:30:44;;;;;;;206.73;93.13;;;4.50;99.90;;;4.45;100.00;99718.44;4980180;28;20043;-67
2023/02/12 02:33:39;;;;;;;277.05;121.85;;;4.60;99.90;;;4.29;100.00;99727.59;4960304;28;20561;-67
2023/02/12 02:36:23;;;;;;;228.52;101.38;;;4.60;99.90;;;4.43;100.00;99723.59;4962086;28;20047;-67
2023/02/12 02:39:02;;;;;;;65.40;36.85;;;4.60;99.90;;;4.43;100.00;99713.28;4964863;28;20063;-66
2023/02/12 02:42:11;;;;;;;87.47;46.40;;;4.60;99.90;;;3.92;100.00;99717.56;4965573;28;20426;-66
2023/02/12 02:45:03;;;;;;;79.95;43.65;;;4.60;99.90;;;3.64;100.00;99721.28;4962636;28;20043;-66
2023/02/12 02:47:42;;;;;;;60.53;33.90;;;4.50;99.90;;;3.54;100.00;99725.38;4966724;28;20050;-66
2023/02/12 02:50:14;;;;;;;55.00;33.58;;;4.50;99.90;;;3.70;100.00;99730.84;4973381;28;20486;-67
2023/02/12 02:52:48;;;;;;;51.15;31.45;;;4.40;99.90;;;3.66;100.00;99732.47;4961995;28;20062;-66
2023/02/12 02:55:18;;;;;;;54.10;33.10;;;4.40;99.90;;;3.61;100.00;99736.66;4973762;28;20051;-66
2023/02/12 02:57:58;;;;;;;46.30;28.90;;;4.40;99.90;;;3.94;100.00;99738.97;4960479;28;20050;-66
2023/02/12 03:00:39;;;;;;;42.58;27.00;;;4.40;99.90;;;4.08;100.00;99734.13;4963219;28;20540;-66
2023/02/12 03:03:36;;;;;;;40.55;24.65;;;4.50;99.90;;;4.27;100.00;99731.88;4962874;28;20043;-66
2023/02/12 03:06:29;;;;;;;42.47;27.05;;;4.60;99.90;;;4.21;100.00;99729.19;4964222;28;20078;-66
2023/02/12 03:09:01;;;;;;;;;;;4.60;99.90;;;4.30;100.00;99726.78;4964158;28;20413;-65
2023/02/12 03:11:32;;;;;;;40.80;25.20;;;4.70;99.90;;;4.09;100.00;99720.44;4967413;28;19932;-67
2023/02/12 03:14:18;;;;;;;57.55;33.65;;;4.70;99.90;;;4.14;100.00;99728.22;4961474;28;20477;-67
2023/02/12 03:17:06;;;;;;;69.85;38.85;;;4.60;99.90;;;4.06;100.00;99730.66;4964362;28;20071;-67
2023/02/12 03:20:03;;;;;;;62.67;35.97;;;4.50;99.90;;;3.98;100.00;99724.50;4962198;28;20147;-67
2023/02/12 03:22:39;;;;;;;48.38;29.65;;;4.50;99.90;;;3.98;100.00;99721.94;4965591;28;20050;-65
2023/02/12 03:25:13;;;;;;;54.03;31.80;;;4.50;99.90;;;3.94;100.00;99727.84;4962940;28;20130;-66
2023/02/12 03:27:52;;;;;;;52.05;31.77;;;4.40;99.90;;;4.00;100.00;99727.13;4966640;28;20047;-66
2023/02/12 03:30:20;;;;;;;55.20;31.50;;;4.40;99.90;;;3.96;100.00;99723.59;4955191;28;20527;-66
2023/02/12 03:33:21;;;;;;;50.05;31.70;;;4.40;99.90;;;3.94;100.00;99718.44;4961045;28;20053;-66
2023/02/12 03:36:02;;;;;;;56.05;34.17;;;4.30;99.90;;;3.80;100.00;99717.31;4961024;28;20051;-66
2023/02/12 03:38:42;;;;;;;77.47;45.20;;;4.30;99.90;;;3.68;100.00;99728.22;4963507;28;20147;-66
2023/02/12 03:41:20;;;;;;;76.25;43.42;;;4.20;99.90;;;3.76;100.00;99734.38;4966075;28;20168;-66
2023/02/12 03:44:02;;;;;;;64.80;37.42;;;4.20;99.90;;;3.86;100.00;99732.00;4963105;28;20429;-66
2023/02/12 03:46:43;;;;;;;73.95;41.30;;;4.30;99.90;;;3.86;100.00;99735.44;4962057;28;20509;-65
2023/02/12 03:49:27;;;;;;;79.68;46.25;;;4.40;99.90;;;3.81;100.00;99731.91;4961503;28;20398;-66
2023/02/12 03:51:57;;;;;;;78.85;45.25;;;4.30;99.90;;;3.83;100.00;99737.94;4975370;28;20078;-67
2023/02/12 03:54:25;;;;;;;91.00;51.67;;;4.20;99.90;;;3.64;100.00;99746.13;4962380;28;20055;-66
2023/02/12 03:57:09;;;;;;;73.10;42.83;;;4.10;99.90;;;3.70;100.00;99744.53;4961374;28;20054;-66
2023/02/12 03:59:39;;;;;;;73.00;41.40;;;4.10;99.90;;;3.71;100.00;99737.69;4957565;28;20462;-66
2023/02/12 04:02:06;;;;;;;72.43;42.15;;;4.10;99.90;;;3.63;100.00;99739.25;4959880;28;20505;-66
2023/02/12 04:04:34;;;;;;;67.47;40.33;;;4.10;99.90;;;3.53;100.00;99745.88;4958943;28;20078;-66
2023/02/12 04:07:01;;;;;;;64.25;37.15;;;4.10;99.90;;;3.53;100.00;99751.03;4961000;28;20070;-66
2023/02/12 04:09:30;;;;;;;55.55;30.77;;;4.10;99.90;;;3.65;100.00;99755.53;4955565;28;20195;-66
2023/02/12 04:12:26;;;;;;;42.25;25.27;;;4.10;99.90;;;3.59;100.00;99750.31;4960947;28;20410;-66
2023/02/12 04:15:33;;;;;;;52.05;29.00;;;4.10;99.90;;;3.60;100.00;99757.16;4960894;28;20070;-65
2023/02/12 04:18:14;;;;;;;52.53;30.15;;;4.10;99.90;;;3.46;100.00;99767.13;4966346;28;20526;-65
2023/02/12 04:21:19;;;;;;;45.15;27.42;;;4.00;99.90;;;3.55;100.00;99778.47;4960442;28;20047;-65
2023/02/12 04:24:31;;;;;;;36.13;21.27;;;4.00;99.90;;;3.62;100.00;99784.59;4964769;28;20054;-65
2023/02/12 04:27:33;;;;;;;32.38;18.63;;;4.10;99.90;;;3.63;100.00;99775.22;4922561;28;20055;-66
2023/02/12 04:30:15;;;;;;;37.58;23.20;;;4.20;99.90;;;3.53;100.00;99779.28;4958316;28;20051;-66
2023/02/12 04:32:52;;;;;;;45.65;26.02;;;4.10;99.90;;;3.49;100.00;99777.47;4963848;28;20413;-65
2023/02/12 04:35:50;;;;;;;38.40;21.70;;;4.00;99.90;;;3.53;100.00;99782.69;4959374;28;20090;-65
2023/02/12 04:38:58;;;;;;;35.85;19.30;;;4.00;99.90;;;3.63;100.00;99790.63;4975246;28;20139;-65
2023/02/12 04:41:25;;;;;;;32.22;20.00;;;4.10;99.90;;;3.77;100.00;99794.34;4910227;29;20056;-65
2023/02/12 04:43:55;;;;;;;30.95;19.67;;;4.10;99.90;;;3.68;100.00;99789.88;4892639;29;20083;-65
2023/02/12 04:46:22;;;;;;;33.03;20.02;;;4.20;99.90;;;3.70;100.00;99793.34;4938018;28;20122;-65
2023/02/12 04:48:57;;;;;;;39.28;21.30;;;4.20;99.90;;;3.81;100.00;99792.66;4962937;28;20082;-65
2023/02/12 04:51:24;;;;;;;37.05;22.80;;;4.20;99.90;;;3.72;100.00;99795.94;4960679;28;20176;-65
2023/02/12 04:53:51;;;;;;;45.88;24.55;;;4.20;99.90;;;3.75;100.00;99789.16;4962100;28;20057;-65
2023/02/12 04:56:18;;;;;;;36.80;21.77;;;4.20;99.90;;;3.74;100.00;99789.13;4961888;28;20062;-66
2023/02/12 04:58:45;;;;;;;34.78;20.75;;;4.20;99.90;;;3.70;100.00;99787.34;4959329;28;20065;-65
2023/02/12 05:01:12;;;;;;;34.28;20.63;;;4.20;99.90;;;3.69;100.00;99791.59;4960518;28;20047;-65
2023/02/12 05:03:40;;;;;;;36.00;21.95;;;4.20;99.90;;;3.77;100.00;99787.47;4966642;28;20121;-66
2023/02/12 05:06:10;;;;;;;29.95;18.75;;;4.30;99.90;;;3.74;100.00;99783.97;4965197;28;20378;-66
2023/02/12 05:08:37;;;;;;;35.40;20.25;;;4.30;99.90;;;3.97;100.00;99800.72;4960790;28;20724;-66
2023/02/12 05:11:06;;;;;;;34.63;19.92;;;4.30;99.90;;;4.08;100.00;99792.34;4965352;28;20046;-65
2023/02/12 05:13:34;;;;;;;31.15;18.55;;;4.40;99.90;;;4.16;100.00;99785.66;4967184;28;20059;-66
2023/02/12 05:16:07;;;;;;;35.83;20.45;;;4.50;99.90;;;4.11;100.00;99787.28;4961787;28;20047;-65
2023/02/12 05:18:34;;;;;;;34.80;20.48;;;4.50;99.90;;;4.04;100.00;99782.84;4968138;28;20051;-68
2023/02/12 05:21:03;;;;;;;36.78;20.52;;;4.50;99.90;;;4.08;100.00;99782.97;4967376;28;20051;-66
2023/02/12 05:23:35;;;;;;;36.30;20.50;;;4.50;99.90;;;4.19;100.00;99776.28;4963167;28;20451;-67
2023/02/12 05:26:12;;;;;;;30.05;18.75;;;4.50;99.90;;;4.19;100.00;99778.84;4954034;28;20046;-66
2023/02/12 05:28:57;;;;;;;41.95;23.35;;;4.50;99.90;;;4.10;100.00;99775.25;4962544;28;20148;-66
2023/02/12 05:31:24;;;;;;;40.88;22.73;;;4.60;99.90;;;4.15;100.00;99778.78;4964302;28;20057;-66
2023/02/12 05:33:52;;;;;;;41.83;25.30;;;4.60;99.90;;;4.13;100.00;99773.63;4961719;28;20778;-66
2023/02/12 05:36:22;;;;;;;35.95;22.35;;;4.60;99.90;;;4.27;100.00;99776.44;4961980;28;20051;-65
2023/02/12 05:38:51;;;;;;;37.80;21.85;;;4.60;99.90;;;4.22;100.00;99772.03;4967501;28;20125;-65
2023/02/12 05:41:22;;;;;;;39.22;23.65;;;4.60;99.90;;;4.18;100.00;99768.56;4961628;28;20051;-68
2023/02/12 05:43:49;;;;;;;36.53;22.73;;;4.60;99.90;;;4.29;100.00;99772.19;4962905;28;20051;-66
2023/02/12 05:46:18;;;;;;;39.47;23.42;;;4.60;99.90;;;4.45;100.00;99775.00;4963073;28;20058;-66
2023/02/12 05:48:46;;;;;;;45.38;26.10;;;4.70;99.90;;;4.51;100.00;99776.00;4963280;28;20047;-66
2023/02/12 05:51:20;;;;;;;48.75;27.63;;;4.80;99.90;;;4.55;100.00;99776.91;4963286;28;20065;-66
2023/02/12 05:53:50;;;;;;;41.20;24.67;;;4.90;99.90;;;4.65;100.00;99780.50;4973795;28;20125;-66
2023/02/12 05:56:24;;;;;;;39.95;23.33;;;4.90;99.90;;;4.57;100.00;99780.38;4961303;28;20131;-65
2023/02/12 05:59:01;;;;;;;40.80;24.23;;;5.00;99.90;;;4.73;100.00;99776.38;4963698;28;20047;-65
2023/02/12 06:01:32;;;;;;;41.40;23.83;;;5.00;99.90;;;4.76;100.00;99769.53;4961803;28;20569;-65
2023/02/12 06:04:02;;;;;;;56.85;30.88;;;5.00;99.90;;;4.46;100.00;99774.19;4962062;28;20046;-67
2023/02/12 06:06:31;;;;;;;46.38;27.17;;;5.00;99.90;;;4.48;100.00;99781.09;4961167;28;20046;-66
2023/02/12 06:08:59;;;;;;;54.08;28.63;;;5.00;99.90;;;4.53;100.00;99784.59;4960968;28;20129;-66
2023/02/12 06:11:27;;;;;;;49.72;28.25;;;4.90;99.90;;;4.60;100.00;99781.28;4966663;28;20488;-66
2023/02/12 06:13:54;;;;;;;51.30;30.05;;;4.90;99.90;;;4.51;100.00;99770.84;4955777;28;20062;-65
2023/02/12 06:16:25;;;;;;;52.08;28.73;;;4.90;99.90;;;4.56;100.00;99779.53;4964102;28;20050;-66
2023/02/12 06:18:53;;;;;;;51.70;28.33;;;5.00;99.90;;;4.46;100.00;99774.19;4959668;28;20050;-66
2023/02/12 06:21:22;;;;;;;61.97;32.03;;;5.00;99.90;;;4.50;100.00;99781.13;4976097;28;20483;-66
2023/02/12 06:23:51;;;;;;;60.17;31.55;;;4.90;99.90;;;4.42;100.00;99777.53;4961826;28;20061;-66
2023/02/12 06:26:19;;;;;;;79.93;35.97;;;4.90;99.90;;;4.37;100.00;99780.03;4961670;28;20059;-67
2023/02/12 06:28:47;;;;;;;67.90;32.90;;;4.90;99.90;;;4.51;100.00;99788.84;4963519;28;20129;-67
2023/02/12 06:31:31;;;;;;;79.50;36.80;;;4.90;99.90;;;4.53;100.00;99797.47;4966865;28;20569;-67
2023/02/12 06:34:04;;;;;;;72.78;35.70;;;5.00;99.90;;;4.58;100.00;99801.00;4963823;28;20054;-66
2023/02/12 06:36:31;;;;;;;76.20;34.15;;;4.90;99.90;;;4.52;100.00;99805.16;4960676;28;20142;-67
2023/02/12 06:39:01;;;;;;;73.65;36.38;;;5.00;99.90;;;4.51;100.00;99808.56;4965858;28;20399;-65
2023/02/12 06:41:29;;;;;;;70.15;34.38;;;4.90;99.90;;;4.52;100.00;99812.88;4946421;28;20122;-66
2023/02/12 06:43:56;;;;;;;70.05;34.83;;;4.90;99.90;;;4.55;100.00;99821.50;4958973;28;20051;-66
2023/02/12 06:46:23;;;;;;;77.65;37.53;;;4.90;99.90;;;4.47;100.00;99817.94;4961007;28;20066;-67
2023/02/12 06:48:56;;;;;;;75.15;35.17;;;4.90;99.90;;;4.60;100.00;99812.16;4976506;28;20266;-67
2023/02/12 06:51:25;;;;;;;64.10;31.23;;;5.00;99.90;;;4.61;100.00;99823.34;4958579;28;20051;-66
2023/02/12 06:53:54;;;;;;;73.97;35.00;;;5.00;99.90;;;4.64;100.00;99828.53;4962995;28;20098;-67
2023/02/12 06:56:23;;;;;;;73.53;33.70;;;5.00;99.90;;;4.61;100.00;99826.75;4962032;28;20054;-66
2023/02/12 06:58:59;;;;;;;67.05;32.15;;;5.00;99.90;;;4.66;100.00;99825.97;4966490;28;20517;-67
2023/02/12 07:01:28;;;;;;;80.60;36.63;;;5.10;99.90;;;4.81;100.00;99828.78;4961587;28;20062;-67
2023/02/12 07:03:59;;;;;;;81.82;35.70;;;5.10;99.90;;;4.85;100.00;99832.31;4959054;28;20049;-66
2023/02/12 07:06:28;;;;;;;74.95;33.40;;;5.10;99.90;;;4.92;100.00;99832.41;4962676;28;20118;-66
2023/02/12 07:08:56;;;;;;;83.60;37.00;;;5.20;99.90;;;4.79;100.00;99831.38;4962786;28;20059;-67
2023/02/12 07:11:26;;;;;;;88.05;38.65;;;5.20;99.90;;;4.82;100.00;99835.69;4962464;28;20158;-67
2023/02/12 07:13:53;;;;;;;93.38;38.25;;;5.20;99.90;;;4.80;100.00;99834.78;4958917;28;20051;-66
2023/02/12 07:16:21;;;;;;;95.18;37.28;;;5.20;99.90;;;4.87;100.00;99838.34;4961899;28;20044;-66
2023/02/12 07:18:48;;;;;;;77.03;35.25;;;5.20;99.90;;;4.84;100.00;99846.88;4959839;28;20149;-67
2023/02/12 07:21:16;;;;;;;95.60;38.65;;;5.20;99.90;;;4.79;100.00;99839.09;4964183;28;20057;-67
2023/02/12 07:23:51;;;;;;;94.63;39.13;;;5.20;99.90;;;4.83;100.00;99837.41;4975763;28;20053;-66
2023/02/12 07:26:20;;;;;;;88.40;37.45;;;5.20;99.90;;;4.83;100.00;99837.41;4974876;28;20051;-67
2023/02/12 07:28:49;;;;;;;93.15;38.67;;;5.30;99.90;;;4.93;100.00;99838.44;4948955;28;20051;-67
2023/02/12 07:31:21;;;;;;;78.82;34.22;;;5.20;99.90;;;5.02;100.00;99841.16;4963420;28;20134;-67
2023/02/12 07:33:53;;;;;;;70.82;31.75;;;5.30;99.90;;;5.15;100.00;99840.50;4960241;28;20133;-67
2023/02/12 07:36:21;;;;;;;79.70;34.38;;;5.40;99.90;;;5.08;100.00;99836.09;4974040;28;20090;-67
2023/02/12 07:38:49;;;;;;;88.25;35.78;;;5.40;99.90;;;4.86;100.00;99831.44;4961366;28;20051;-67
2023/02/12 07:41:23;;;;;;;80.47;34.40;;;5.40;99.90;;;4.84;100.00;99830.59;4959584;28;20050;-67
2023/02/12 07:43:56;;;;;;;88.40;36.72;;;5.50;99.90;;;4.98;100.00;99840.25;4974078;28;20043;-66
2023/02/12 07:46:28;;;;;;;108.28;37.17;;;5.50;99.90;;;5.02;100.00;99836.03;4958171;28;20581;-67
2023/02/12 07:49:03;;;;;;;106.78;39.88;;;5.50;99.90;;;4.96;100.00;99841.06;4956989;28;20122;-67
2023/02/12 07:51:31;;;;;;;118.55;39.30;;;5.50;99.90;;;5.00;100.00;99842.84;4959070;28;20047;-66
2023/02/12 07:54:00;;;;;;;70.70;33.63;;;5.50;99.90;;;4.99;100.00;99846.25;4959876;28;20418;-67
2023/02/12 07:56:31;;;;;;;105.78;37.75;;;5.50;99.90;;;5.13;100.00;99847.34;4959298;28;20137;-67
2023/02/12 07:59:04;;;;;;;90.85;37.60;;;5.60;99.90;;;5.17;100.00;99853.41;4974547;28;20043;-67
2023/02/12 08:01:40;;;;;;;123.45;41.20;;;5.60;99.90;;;5.08;100.00;99854.13;4961415;28;20046;-67
2023/02/12 08:04:14;;;;;;;85.00;36.42;;;5.70;99.90;;;5.09;100.00;99848.16;4963813;28;20046;-67
2023/02/12 08:06:44;;;;;;;113.88;39.85;;;5.60;99.90;;;5.12;100.00;99857.63;4960839;28;20471;-67
2023/02/12 08:09:16;;;;;;;115.43;39.42;;;5.70;99.90;;;5.09;100.00;99852.44;4959280;28;20154;-67
2023/02/12 08:11:44;;;;;;;128.35;42.00;;;5.70;99.90;;;5.03;100.00;99858.34;4962417;28;20052;-67
2023/02/12 08:14:14;;;;;;;104.63;39.60;;;5.70;99.90;;;5.16;100.00;99862.84;4959759;28;20050;-66
2023/02/12 08:16:43;;;;;;;128.05;40.47;;;5.70;99.90;;;5.08;100.00;99851.53;4962112;28;20035;-67
2023/02/12 08:19:11;;;;;;;109.60;39.80;;;5.70;99.90;;;5.23;100.00;99849.22;4958499;28;20136;-67
2023/02/12 08:21:51;;;;;;;95.65;37.28;;;5.70;99.90;;;5.12;100.00;99857.63;4959335;28;20062;-67
2023/02/12 08:24:20;;;;;;;131.27;41.17;;;5.70;99.90;;;5.16;100.00;99859.41;4963654;28;20481;-66
2023/02/12 08:26:47;;;;;;;99.05;37.67;;;5.60;99.90;;;5.18;100.00;99861.16;4963467;28;20046;-67
2023/02/12 08:29:19;;;;;;;104.85;37.30;;;5.70;99.90;;;5.19;100.00;99855.16;4964002;28;20069;-66
2023/02/12 08:31:48;;;;;;;109.65;38.22;;;5.80;99.90;;;5.21;100.00;99856.03;4962804;28;20059;-66
2023/02/12 08:34:20;;;;;;;101.72;39.63;;;5.80;99.90;;;5.23;100.00;99853.50;4962884;28;20042;-66
2023/02/12 08:36:50;;;;;;;102.18;38.08;;;5.80;99.90;;;5.45;100.00;99857.25;4948547;28;20129;-66
2023/02/12 08:39:17;;;;;;;91.50;36.03;;;5.80;99.90;;;5.43;100.00;99857.25;4963912;28;20063;-66
2023/02/12 08:41:46;;;;;;;103.22;38.58;;;6.00;99.90;;;5.33;100.00;99852.78;4959464;28;20051;-66
2023/02/12 08:44:14;;;;;;;111.45;39.53;;;5.90;99.90;;;5.26;100.00;99860.41;4977460;28;20051;-66
2023/02/12 08:46:52;;;;;;;102.03;38.30;;;5.90;99.90;;;5.22;100.00;99859.47;4964637;28;20054;-66
2023/02/12 08:49:24;;;;;;;88.97;38.20;;;5.80;99.90;;;5.41;100.00;99858.06;4965196;28;20508;-67
2023/02/12 08:51:53;;;;;;;99.20;41.75;;;6.00;99.90;;;5.21;100.00;99856.03;4965332;28;20051;-67
2023/02/12 08:54:25;;;;;;;86.70;38.70;;;5.90;99.90;;;5.20;100.00;99859.47;4959751;28;20058;-66
2023/02/12 08:56:57;;;;;;;98.22;39.65;;;5.90;99.90;;;5.36;100.00;99858.00;4966251;28;20129;-65
2023/02/12 08:59:24;;;;;;;93.57;40.63;;;5.90;99.90;;;5.27;100.00;99859.56;4959754;28;20046;-66
2023/02/12 09:01:52;;;;;;;75.13;37.72;;;5.80;99.90;;;5.34;100.00;99851.97;4967807;28;20303;-66
2023/02/12 09:04:23;;;;;;;78.10;38.95;;;5.90;99.90;;;5.49;100.00;99851.31;4960652;28;20054;-66
2023/02/12 09:06:51;;;;;;;68.20;35.95;;;6.00;99.90;;;5.57;100.00;99854.00;4964300;28;20047;-65
2023/02/12 09:09:19;;;;;;;72.35;36.63;;;6.10;99.90;;;5.53;100.00;99834.19;4964446;28;20054;-66
2023/02/12 09:11:46;;;;;;;64.40;35.58;;;6.10;99.90;;;5.53;100.00;99839.34;4963724;28;20045;-66
2023/02/12 09:14:17;;;;;;;66.20;34.85;;;6.10;99.90;;;5.56;100.00;99834.22;4963056;28;20070;-66
2023/02/12 09:16:44;;;;;;;73.85;38.28;;;6.10;99.90;;;5.64;100.00;99835.22;4958257;28;20537;-66
2023/02/12 09:19:13;;;;;;;73.88;36.88;;;6.20;99.90;;;5.70;100.00;99832.69;4962104;28;20051;-66
2023/02/12 09:21:41;;;;;;;66.88;35.63;;;6.20;99.90;;;5.65;100.00;99824.91;4961379;28;20059;-65
2023/02/12 09:24:09;;;;;;;77.15;37.70;;;6.30;99.90;;;5.55;100.00;99825.63;4961166;28;20417;-66
2023/02/12 09:26:36;;;;;;;73.55;36.35;;;6.20;99.90;;;5.68;100.00;99824.09;4963010;28;20061;-66
2023/02/12 09:29:04;;;;;;;77.03;38.65;;;6.20;99.90;;;5.58;100.00;99825.66;4958207;28;20054;-66
2023/02/12 09:31:32;;;;;;;75.30;39.13;;;6.20;99.90;;;5.70;100.00;99821.53;4964908;28;20130;-65
2023/02/12 09:34:03;;;;;;;68.85;36.78;;;6.30;99.90;;;5.83;100.00;99824.28;4960333;28;20054;-67
2023/02/12 09:36:30;;;;;;;64.15;35.60;;;6.30;99.90;;;5.72;100.00;99817.25;4958999;28;20057;-67
2023/02/12 09:38:58;;;;;;;85.30;40.17;;;6.30;99.90;;;5.60;100.00;99817.97;4962974;28;20389;-67
2023/02/12 09:41:49;;;;;;;73.30;39.17;;;6.20;99.90;;;5.66;100.00;99821.50;4960977;28;20482;-68
2023/02/12 09:44:52;;;;;;;63.90;35.67;;;6.30;99.90;;;5.83;100.00;99818.25;4961920;28;20063;-69
2023/02/12 09:47:35;;;;;;;78.85;39.88;;;6.40;99.90;;;5.78;100.00;99818.22;4961316;28;20142;-67
2023/02/12 09:50:39;;;;;;;72.47;37.67;;;6.40;99.90;;;5.83;100.00;99818.25;4964275;28;20047;-68
2023/02/12 09:53:14;;;;;;;71.57;38.25;;;6.40;99.90;;;5.68;100.00;99813.81;4949748;28;20571;-68
2023/02/12 09:55:41;;;;;;;63.75;35.35;;;6.40;99.90;;;5.82;100.00;99814.84;4963045;28;20066;-67
2023/02/12 09:58:34;;;;;;;58.38;32.58;;;6.40;99.90;;;5.86;100.00;99813.13;4963883;28;20649;-67
2023/02/12 10:01:11;;;;;;;63.75;34.97;;;6.40;99.90;;;5.84;100.00;99814.88;4964944;28;20130;-68
2023/02/12 10:03:39;;;;;;;56.80;34.85;;;6.50;99.90;;;6.06;100.00;99810.84;4964761;28;20722;-65
2023/02/12 10:06:13;;;;;;;54.83;33.55;;;6.60;99.90;;;6.15;100.00;99808.34;4976187;28;20066;-66
2023/02/12 10:09:18;;;;;;;67.82;37.15;;;6.80;99.90;;;5.98;100.00;99794.44;4965336;28;20142;-68
2023/02/12 10:12:12;;;;;;;56.70;33.72;;;6.70;99.90;;;6.13;100.00;99792.00;4961069;28;20065;-67
2023/02/12 10:15:12;;;;;;;60.72;34.47;;;6.80;99.90;;;6.23;100.00;99799.00;4965925;28;20540;-68
2023/02/12 10:18:03;;;;;;;62.80;34.25;;;6.80;99.90;;;6.24;100.00;99790.41;4957629;28;20428;-68
2023/02/12 10:20:48;;;;;;;60.80;33.40;;;6.90;99.90;;;6.15;100.00;99792.88;4963028;28;20065;-68
2023/02/12 10:23:49;;;;;;;64.40;35.42;;;6.80;99.90;;;6.06;100.00;99795.38;4963606;28;20050;-68
2023/02/12 10:26:32;;;;;;;56.25;33.25;;;6.70;99.90;;;6.30;100.00;99781.88;4959804;28;20058;-67
2023/02/12 10:29:12;;;;;;;51.28;30.13;;;6.90;99.90;;;6.57;100.00;99794.19;4958176;28;20047;-67
2023/02/12 10:31:45;;;;;;;56.75;30.98;;;7.10;99.90;;;6.28;100.00;99781.84;4959493;28;20061;-67
2023/02/12 10:34:20;;;;;;;49.77;29.47;;;7.00;99.90;;;6.58;100.00;99782.13;4958350;28;20115;-67
2023/02/12 10:36:51;;;;;;;55.50;30.95;;;7.20;99.90;;;6.32;100.00;99777.59;4962371;28;20561;-67
2023/02/12 10:39:23;;;;;;;48.95;30.38;;;7.00;99.90;;;6.32;100.00;99767.28;4958789;28;20051;-67
2023/02/12 10:42:15;;;;;;;57.92;32.10;;;7.10;99.90;;;6.33;100.00;99766.44;4960980;28;20053;-67
2023/02/12 10:44:43;;;;;;;51.17;28.38;;;6.90;99.90;;;6.55;100.00;99764.06;4947310;28;20051;-67